createdAt,value
2022-09-01T00:00:02.040Z,73.32
2022-09-01T00:02:30.259Z,73.32
2022-09-01T00:04:58.479Z,72.37
2022-09-01T00:07:22.287Z,72.44
2022-09-01T00:09:45.963Z,73.93
2022-09-01T00:12:11.287Z,72.87
2022-09-01T00:14:41.576Z,73.40
2022-09-01T00:17:09.004Z,73.53
2022-09-01T00:19:36.504Z,73.44
2022-09-01T00:22:01.219Z,73.76
2022-09-01T00:24:26.218Z,74.14
2022-09-01T00:26:50.690Z,73.86
2022-09-01T00:29:14.624Z,73.85
2022-09-01T00:31:38.845Z,74.01
2022-09-01T00:34:03.614Z,74.55
2022-09-01T00:36:29.258Z,74.09
2022-09-01T00:38:53.591Z,74.08
2022-09-01T00:41:19.276Z,75.12
2022-09-01T00:43:45.578Z,73.38
2022-09-01T00:46:14.143Z,74.10
2022-09-01T00:48:42.363Z,74.65
2022-09-01T00:51:09.095Z,73.56
2022-09-01T00:53:35.099Z,73.05
2022-09-01T00:55:59.211Z,74.71
2022-09-01T00:58:23.465Z,74.81
2022-09-01T01:00:51.084Z,74.04
2022-09-01T01:03:16.052Z,73.50
2022-09-01T01:05:46.044Z,75.09
2022-09-01T01:08:12.140Z,74.35
2022-09-01T01:10:41.528Z,74.71
2022-09-01T01:13:10.488Z,74.09
2022-09-01T01:15:34.149Z,74.40
2022-09-01T01:17:58.060Z,74.10
2022-09-01T01:20:43.892Z,74.74
2022-09-01T01:23:16.888Z,73.55
2022-09-01T01:25:45.368Z,74.64
2022-09-01T01:28:15.815Z,74.13
2022-09-01T01:30:43.065Z,73.92
2022-09-01T01:33:08.114Z,73.05
2022-09-01T01:35:33.800Z,74.46
2022-09-01T01:37:57.538Z,74.95
2022-09-01T01:40:22.878Z,74.65
2022-09-01T01:42:51.297Z,73.99
2022-09-01T01:45:17.227Z,72.22
2022-09-01T01:47:41.736Z,74.42
2022-09-01T01:50:09.487Z,73.64
2022-09-01T01:52:34.900Z,73.51
2022-09-01T01:55:05.102Z,74.72
2022-09-01T01:57:32.019Z,74.26
2022-09-01T01:59:57.248Z,74.96
2022-09-01T02:02:20.990Z,74.64
2022-09-01T02:04:45.664Z,74.88
2022-09-01T02:07:13.107Z,74.51
2022-09-01T02:09:39.789Z,74.90
2022-09-01T02:12:04.220Z,74.13
2022-09-01T02:14:29.407Z,74.66
2022-09-01T02:16:56.132Z,74.36
2022-09-01T02:19:21.205Z,74.57
2022-09-01T02:21:47.276Z,73.39
2022-09-01T02:24:12.060Z,73.42
2022-09-01T02:26:39.632Z,74.09
2022-09-01T02:29:07.243Z,74.97
2022-09-01T02:31:39.310Z,74.15
2022-09-01T02:34:04.996Z,75.32
2022-09-01T02:36:32.777Z,75.14
2022-09-01T02:38:57.077Z,75.20
2022-09-01T02:41:23.715Z,76.50
2022-09-01T02:43:47.852Z,75.55
2022-09-01T02:46:12.284Z,76.01
2022-09-01T02:48:39.361Z,75.52
2022-09-01T02:51:08.489Z,75.08
2022-09-01T02:53:34.970Z,75.71
2022-09-01T02:56:00.108Z,75.73
2022-09-01T02:58:24.979Z,76.28
2022-09-01T03:00:55.371Z,75.94
2022-09-01T03:03:21.730Z,75.12
2022-09-01T03:05:45.429Z,75.67
2022-09-01T03:08:16.149Z,75.41
2022-09-01T03:10:43.034Z,75.87
2022-09-01T03:13:09.444Z,76.47
2022-09-01T03:15:34.148Z,76.78
2022-09-01T03:18:00.867Z,77.10
2022-09-01T03:20:24.696Z,75.54
2022-09-01T03:22:49.021Z,76.80
2022-09-01T03:25:14.463Z,77.97
2022-09-01T03:27:38.067Z,76.53
2022-09-01T03:30:01.822Z,77.46
2022-09-01T03:32:26.116Z,77.55
2022-09-01T03:34:51.321Z,77.26
2022-09-01T03:37:15.077Z,77.86
2022-09-01T03:39:39.598Z,77.42
2022-09-01T03:42:05.137Z,78.22
2022-09-01T03:44:29.634Z,78.42
2022-09-01T03:46:53.455Z,78.92
2022-09-01T03:49:25.149Z,78.39
2022-09-01T03:51:49.121Z,78.16
2022-09-01T03:54:14.406Z,78.11
2022-09-01T03:56:41.715Z,79.37
2022-09-01T03:59:17.144Z,78.25
2022-09-01T04:01:43.819Z,78.98
2022-09-01T04:04:07.890Z,78.94
2022-09-01T04:06:32.333Z,79.41
2022-09-01T04:09:03.278Z,79.16
2022-09-01T04:11:32.353Z,79.25
2022-09-01T04:13:56.171Z,78.93
2022-09-01T04:16:42.273Z,81.07
2022-09-01T04:19:16.189Z,79.56
2022-09-01T04:21:40.055Z,80.77
2022-09-01T04:24:05.730Z,80.17
2022-09-01T04:26:31.370Z,85.55
2022-09-01T04:28:56.157Z,84.29
2022-09-01T04:31:23.223Z,82.94
2022-09-01T04:33:52.824Z,84.60
2022-09-01T04:36:22.482Z,82.32
2022-09-01T04:38:47.111Z,84.54
2022-09-01T04:41:16.619Z,84.11
2022-09-01T04:43:40.552Z,86.55
2022-09-01T04:46:04.539Z,86.42
2022-09-01T04:48:31.639Z,86.79
2022-09-01T04:50:56.500Z,86.74
2022-09-01T04:53:25.108Z,85.31
2022-09-01T04:55:55.227Z,86.50
2022-09-01T04:58:22.140Z,88.03
2022-09-01T05:00:49.627Z,87.51
2022-09-01T05:03:15.107Z,86.89
2022-09-01T05:05:54.145Z,85.89
2022-09-01T05:08:24.309Z,85.04
2022-09-01T05:10:53.320Z,85.34
2022-09-01T05:13:29.681Z,86.38
2022-09-01T05:16:04.388Z,86.06
2022-09-01T05:18:28.332Z,86.73
2022-09-01T05:20:54.239Z,86.91
2022-09-01T05:23:19.706Z,86.17
2022-09-01T05:25:46.228Z,85.88
2022-09-01T05:28:11.992Z,85.71
2022-09-01T05:30:36.922Z,85.66
2022-09-01T05:33:00.747Z,85.17
2022-09-01T05:35:32.771Z,85.25
2022-09-01T05:37:59.983Z,85.65
2022-09-01T05:40:24.747Z,85.38
2022-09-01T05:42:48.919Z,85.45
2022-09-01T05:45:14.363Z,85.72
2022-09-01T05:47:38.153Z,84.13
2022-09-01T05:50:02.175Z,84.29
2022-09-01T05:52:26.492Z,84.11
2022-09-01T05:54:52.513Z,84.23
2022-09-01T05:57:33.759Z,83.60
2022-09-01T05:59:58.543Z,83.59
2022-09-01T06:02:24.364Z,82.30
2022-09-01T06:04:49.027Z,83.08
2022-09-01T06:07:25.405Z,82.14
2022-09-01T06:09:53.814Z,82.05
2022-09-01T06:12:23.828Z,77.69
2022-09-01T06:14:49.887Z,78.52
2022-09-01T06:17:16.490Z,73.24
2022-09-01T06:19:41.144Z,70.26
2022-09-01T06:22:05.318Z,69.66
2022-09-01T06:24:29.876Z,66.17
2022-09-01T06:26:55.051Z,65.87
2022-09-01T06:29:20.511Z,63.95
2022-09-01T06:31:51.846Z,64.91
2022-09-01T06:34:18.162Z,62.15
2022-09-01T06:36:43.058Z,61.05
2022-09-01T06:39:07.659Z,58.33
2022-09-01T06:41:32.194Z,56.32
2022-09-01T06:43:57.775Z,56.54
2022-09-01T06:46:22.456Z,55.22
2022-09-01T06:48:47.499Z,54.67
2022-09-01T06:51:15.843Z,55.30
2022-09-01T06:53:42.467Z,53.01
2022-09-01T06:56:10.216Z,52.13
2022-09-01T06:58:35.050Z,53.13
2022-09-01T07:01:00.369Z,53.15
2022-09-01T07:03:25.147Z,52.49
2022-09-01T07:06:02.445Z,54.87
2022-09-01T07:12:24.228Z,55.66
2022-09-01T07:17:34.716Z,56.73
2022-09-01T07:20:23.164Z,57.03
2022-09-01T07:25:48.402Z,59.41
2022-09-01T07:28:20.594Z,57.53
2022-09-01T07:30:53.045Z,57.66
2022-09-01T07:44:50.416Z,60.00
2022-09-01T07:47:56.316Z,59.42
2022-09-01T07:50:38.685Z,60.22
2022-09-01T07:53:05.816Z,61.45
2022-09-01T07:55:29.707Z,62.02
2022-09-01T07:57:53.496Z,61.09
2022-09-01T08:00:17.756Z,60.27
2022-09-01T08:02:47.057Z,59.95
2022-09-01T08:05:18.035Z,59.15
2022-09-01T08:07:58.687Z,60.11
2022-09-01T08:10:28.248Z,59.55
2022-09-01T08:12:59.785Z,59.39
2022-09-01T08:15:41.012Z,60.95
2022-09-01T08:18:08.870Z,58.51
2022-09-01T08:20:35.207Z,58.96
2022-09-01T08:23:23.556Z,59.70
2022-09-01T08:25:50.660Z,60.62
2022-09-01T08:28:26.021Z,59.98
2022-09-01T08:30:52.810Z,56.48
2022-09-01T08:33:19.954Z,58.61
2022-09-01T08:35:48.646Z,57.39
2022-09-01T08:38:13.749Z,57.23
2022-09-01T08:40:42.293Z,55.44
2022-09-01T08:43:17.709Z,54.64
2022-09-01T08:45:49.240Z,54.57
2022-09-01T08:51:17.146Z,53.59
2022-09-01T08:54:29.409Z,54.51
2022-09-01T08:57:01.167Z,54.60
2022-09-01T08:59:44.926Z,54.20
2022-09-01T09:02:45.312Z,53.87
2022-09-01T09:05:25.121Z,54.16
2022-09-01T09:08:17.956Z,53.88
2022-09-01T09:10:52.272Z,54.37
2022-09-01T09:13:23.531Z,53.37
2022-09-01T09:16:07.481Z,52.99
2022-09-01T09:18:54.661Z,51.95
2022-09-01T09:21:23.641Z,52.73
2022-09-01T09:23:56.247Z,51.32
2022-09-01T09:26:22.248Z,50.05
2022-09-01T09:28:49.959Z,49.98
2022-09-01T09:31:33.898Z,49.91
2022-09-01T09:34:00.387Z,52.14
2022-09-01T09:36:31.507Z,48.93
2022-09-01T09:39:09.413Z,50.79
2022-09-01T09:41:33.252Z,47.95
2022-09-01T09:44:01.299Z,49.75
2022-09-01T09:46:29.548Z,48.92
2022-09-01T09:49:15.078Z,48.10
2022-09-01T09:51:40.651Z,48.85
2022-09-01T09:54:16.430Z,45.55
2022-09-01T09:56:44.477Z,47.38
2022-09-01T09:59:45.800Z,45.11
2022-09-01T10:02:28.942Z,45.45
2022-09-01T10:04:55.806Z,43.73
2022-09-01T10:07:35.077Z,43.12
2022-09-01T10:10:01.874Z,42.91
2022-09-01T10:12:27.225Z,42.92
2022-09-01T10:14:55.777Z,41.32
2022-09-01T10:17:26.218Z,41.63
2022-09-01T10:19:57.074Z,41.15
2022-09-01T10:22:21.827Z,42.81
2022-09-01T10:24:46.236Z,44.43
2022-09-01T10:27:20.747Z,41.79
2022-09-01T10:29:50.336Z,42.79
2022-09-01T10:32:35.193Z,44.63
2022-09-01T10:35:04.722Z,38.88
2022-09-01T10:37:38.986Z,39.63
2022-09-01T10:40:43.420Z,40.23
2022-09-01T10:43:38.061Z,40.28
2022-09-01T10:46:05.827Z,38.95
2022-09-01T10:48:48.415Z,40.97
2022-09-01T10:51:51.394Z,37.99
2022-09-01T10:54:55.786Z,37.48
2022-09-01T10:57:42.295Z,35.84
2022-09-01T11:03:53.449Z,37.05
2022-09-01T11:07:14.490Z,37.01
2022-09-01T11:09:41.847Z,37.13
2022-09-01T11:12:49.123Z,38.97
2022-09-01T11:15:36.667Z,36.87
2022-09-01T11:18:01.208Z,35.92
2022-09-01T11:20:29.297Z,35.01
2022-09-01T11:23:03.723Z,36.47
2022-09-01T11:25:43.746Z,36.55
2022-09-01T11:28:38.111Z,35.34
2022-09-01T11:31:12.953Z,36.53
2022-09-01T11:33:47.966Z,36.42
2022-09-01T11:36:25.559Z,37.22
2022-09-01T11:38:55.023Z,38.18
2022-09-01T11:41:29.048Z,39.08
2022-09-01T11:43:59.061Z,39.41
2022-09-01T11:46:29.404Z,38.83
2022-09-01T11:48:53.265Z,40.10
2022-09-01T11:51:18.823Z,40.60
2022-09-01T11:53:43.948Z,39.17
2022-09-01T11:56:17.498Z,40.20
2022-09-01T11:58:41.910Z,40.62
2022-09-01T12:01:16.918Z,39.65
2022-09-01T12:03:41.116Z,39.96
2022-09-01T12:06:08.527Z,41.27
2022-09-01T12:08:36.863Z,41.92
2022-09-01T12:11:08.687Z,41.61
2022-09-01T12:13:32.527Z,42.30
2022-09-01T12:16:18.484Z,40.81
2022-09-01T12:18:49.890Z,40.48
2022-09-01T12:21:24.043Z,41.08
2022-09-01T12:23:49.438Z,41.70
2022-09-01T12:26:16.935Z,39.57
2022-09-01T12:28:42.276Z,38.43
2022-09-01T12:31:09.890Z,37.30
2022-09-01T12:33:34.193Z,37.97
2022-09-01T12:36:16.676Z,38.90
2022-09-01T12:38:40.374Z,37.75
2022-09-01T12:41:34.958Z,38.04
2022-09-01T12:43:58.739Z,37.83
2022-09-01T12:46:42.371Z,39.02
2022-09-01T12:49:19.905Z,38.38
2022-09-01T12:51:43.927Z,40.25
2022-09-01T12:54:09.433Z,41.56
2022-09-01T12:56:38.995Z,38.35
2022-09-01T12:59:15.577Z,37.66
2022-09-01T13:01:42.778Z,38.98
2022-09-01T13:04:29.998Z,38.37
2022-09-01T13:06:54.196Z,39.01
2022-09-01T13:09:18.182Z,37.71
2022-09-01T13:14:31.332Z,38.69
2022-09-01T13:16:54.967Z,37.21
2022-09-01T13:19:27.375Z,39.97
2022-09-01T13:21:51.636Z,36.25
2022-09-01T13:24:15.224Z,37.61
2022-09-01T13:26:38.987Z,37.78
2022-09-01T13:29:04.523Z,38.25
2022-09-01T13:31:30.079Z,37.11
2022-09-01T13:34:10.892Z,38.10
2022-09-01T13:36:49.696Z,37.99
2022-09-01T13:39:15.651Z,38.46
2022-09-01T13:41:40.533Z,40.03
2022-09-01T13:44:05.735Z,41.51
2022-09-01T13:46:29.368Z,37.43
2022-09-01T13:51:37.315Z,36.26
2022-09-01T13:54:00.948Z,37.03
2022-09-01T13:56:24.877Z,37.66
2022-09-01T13:58:48.761Z,39.87
2022-09-01T14:01:13.911Z,35.98
2022-09-01T14:03:37.787Z,34.92
2022-09-01T14:06:01.835Z,36.47
2022-09-01T14:08:25.548Z,37.23
2022-09-01T14:10:51.953Z,38.63
2022-09-01T14:13:15.903Z,38.35
2022-09-01T14:15:40.585Z,37.53
2022-09-01T14:18:06.455Z,38.23
2022-09-01T14:20:36.861Z,38.48
2022-09-01T14:23:00.980Z,40.77
2022-09-01T14:25:24.854Z,39.11
2022-09-01T14:27:49.717Z,40.85
2022-09-01T14:30:17.011Z,37.85
2022-09-01T14:32:40.719Z,38.39
2022-09-01T14:35:08.249Z,39.14
2022-09-01T14:37:31.986Z,38.52
2022-09-01T14:39:58.179Z,37.86
2022-09-01T14:42:24.047Z,41.01
2022-09-01T14:44:48.347Z,37.94
2022-09-01T14:47:12.483Z,37.92
2022-09-01T14:49:43.043Z,37.76
2022-09-01T14:52:10.563Z,38.74
2022-09-01T14:54:35.199Z,38.52
2022-09-01T14:59:42.803Z,37.95
2022-09-01T15:02:07.211Z,36.64
2022-09-01T15:04:31.414Z,37.03
2022-09-01T15:06:55.151Z,39.51
2022-09-01T15:09:20.329Z,39.99
2022-09-01T15:11:45.125Z,38.03
2022-09-01T15:14:10.480Z,40.58
2022-09-01T15:16:39.535Z,41.62
2022-09-01T15:19:04.023Z,42.01
2022-09-01T15:21:32.043Z,41.71
2022-09-01T15:23:56.528Z,41.43
2022-09-01T15:26:22.920Z,42.77
2022-09-01T15:28:48.193Z,42.52
2022-09-01T15:31:12.882Z,42.89
2022-09-01T15:33:36.715Z,42.38
2022-09-01T15:36:02.063Z,42.35
2022-09-01T15:38:30.316Z,42.70
2022-09-01T15:40:58.328Z,42.74
2022-09-01T15:43:24.783Z,41.06
2022-09-01T15:45:48.698Z,42.71
2022-09-01T15:48:12.387Z,43.11
2022-09-01T15:50:36.044Z,41.60
2022-09-01T15:53:02.900Z,42.53
2022-09-01T15:55:28.928Z,43.51
2022-09-01T15:57:54.259Z,42.47
2022-09-01T16:00:20.268Z,43.26
2022-09-01T16:02:44.304Z,43.16
2022-09-01T16:05:09.787Z,43.38
2022-09-01T16:07:33.597Z,42.55
2022-09-01T16:09:57.931Z,42.62
2022-09-01T16:12:21.651Z,44.47
2022-09-01T16:14:45.646Z,43.92
2022-09-01T16:17:19.142Z,44.57
2022-09-01T16:19:54.411Z,45.99
2022-09-01T16:22:26.890Z,45.63
2022-09-01T16:24:54.233Z,46.13
2022-09-01T16:27:21.391Z,46.81
2022-09-01T16:29:49.723Z,46.50
2022-09-01T16:32:15.492Z,47.45
2022-09-01T16:34:47.065Z,47.39
2022-09-01T16:37:28.867Z,47.04
2022-09-01T16:39:58.864Z,48.67
2022-09-01T16:42:31.148Z,48.38
2022-09-01T16:45:06.997Z,48.88
2022-09-01T16:47:59.113Z,48.61
2022-09-01T16:50:38.058Z,50.07
2022-09-01T16:53:16.835Z,49.68
2022-09-01T16:55:57.253Z,49.23
2022-09-01T16:58:29.176Z,48.35
2022-09-01T17:01:05.892Z,48.35
2022-09-01T17:03:42.731Z,48.76
2022-09-01T17:06:15.472Z,48.26
2022-09-01T17:08:52.687Z,48.76
2022-09-01T17:11:27.927Z,50.14
2022-09-01T17:13:53.487Z,49.56
2022-09-01T17:16:24.109Z,49.26
2022-09-01T17:18:55.950Z,48.73
2022-09-01T17:21:25.737Z,48.67
2022-09-01T17:23:56.041Z,48.72
2022-09-01T17:26:26.536Z,48.67
2022-09-01T17:28:56.409Z,47.33
2022-09-01T17:31:38.022Z,47.38
2022-09-01T17:34:18.713Z,47.48
2022-09-01T17:36:57.173Z,48.03
2022-09-01T17:39:37.032Z,48.44
2022-09-01T17:42:07.403Z,47.79
2022-09-01T17:44:43.206Z,48.66
2022-09-01T17:47:13.902Z,48.86
2022-09-01T17:49:45.502Z,49.19
2022-09-01T17:52:19.276Z,49.96
2022-09-01T17:54:51.362Z,51.50
2022-09-01T17:57:25.903Z,50.84
2022-09-01T17:59:56.163Z,52.37
2022-09-01T18:02:48.760Z,52.66
2022-09-01T18:05:16.332Z,52.96
2022-09-01T18:08:04.201Z,53.89
2022-09-01T18:10:34.078Z,55.08
2022-09-01T18:13:05.018Z,54.61
2022-09-01T18:15:30.608Z,56.31
2022-09-01T18:18:07.645Z,55.94
2022-09-01T18:20:41.951Z,55.80
2022-09-01T18:23:08.878Z,56.46
2022-09-01T18:25:41.900Z,57.10
2022-09-01T18:28:05.746Z,58.04
2022-09-01T18:30:52.212Z,57.68
2022-09-01T18:33:28.051Z,57.37
2022-09-01T18:36:04.808Z,57.84
2022-09-01T18:38:42.702Z,58.48
2022-09-01T18:41:36.867Z,58.78
2022-09-01T18:44:19.036Z,59.95
2022-09-01T18:46:55.214Z,59.89
2022-09-01T18:49:29.927Z,60.34
2022-09-01T18:52:09.243Z,60.52
2022-09-01T18:54:40.559Z,61.02
2022-09-01T18:57:07.070Z,61.83
2022-09-01T18:59:55.020Z,62.74
2022-09-01T19:03:06.874Z,62.22
2022-09-01T19:05:59.794Z,62.58
2022-09-01T19:08:43.753Z,63.70
2022-09-01T19:11:15.024Z,63.54
2022-09-01T19:13:56.466Z,63.64
2022-09-01T19:16:35.687Z,64.56
2022-09-01T19:19:10.186Z,64.05
2022-09-01T19:21:34.554Z,64.37
2022-09-01T19:24:04.735Z,64.37
2022-09-01T19:26:29.924Z,64.22
2022-09-01T19:29:00.439Z,64.81
2022-09-01T19:31:29.233Z,65.40
2022-09-01T19:33:57.264Z,65.22
2022-09-01T19:36:31.081Z,65.33
2022-09-01T19:38:55.235Z,65.82
2022-09-01T19:41:26.827Z,65.88
2022-09-01T19:43:57.455Z,65.88
2022-09-01T19:46:31.234Z,66.81
2022-09-01T19:49:04.738Z,66.45
2022-09-01T19:51:35.657Z,66.96
2022-09-01T19:54:05.307Z,66.83
2022-09-01T19:56:36.439Z,67.25
2022-09-01T19:59:14.316Z,67.81
2022-09-01T20:01:47.335Z,67.59
2022-09-01T20:04:32.575Z,67.52
2022-09-01T20:07:00.686Z,67.84
2022-09-01T20:09:34.741Z,68.41
2022-09-01T20:12:09.761Z,68.44
2022-09-01T20:15:05.731Z,69.66
2022-09-01T20:17:35.507Z,68.58
2022-09-01T20:20:07.663Z,69.26
2022-09-01T20:22:40.254Z,69.61
2022-09-01T20:25:10.890Z,69.01
2022-09-01T20:27:54.214Z,69.27
2022-09-01T20:30:21.847Z,70.01
2022-09-01T20:32:52.307Z,70.48
2022-09-01T20:35:23.023Z,70.76
2022-09-01T20:37:51.423Z,70.91
2022-09-01T20:40:19.530Z,70.22
2022-09-01T20:42:55.590Z,70.39
2022-09-01T20:45:22.383Z,71.00
2022-09-01T20:47:51.462Z,71.56
2022-09-01T20:50:16.127Z,71.63
2022-09-01T20:52:53.895Z,72.09
2022-09-01T20:55:24.937Z,70.91
2022-09-01T20:58:01.203Z,71.08
2022-09-01T21:00:28.074Z,71.73
2022-09-01T21:03:03.546Z,71.83
2022-09-01T21:05:41.514Z,71.89
2022-09-01T21:08:26.450Z,72.27
2022-09-01T21:11:25.282Z,72.02
2022-09-01T21:14:09.074Z,72.33
2022-09-01T21:16:57.775Z,72.24
2022-09-01T21:19:30.253Z,71.59
2022-09-01T21:22:05.824Z,72.48
2022-09-01T21:24:29.486Z,72.54
2022-09-01T21:26:56.661Z,72.42
2022-09-01T21:29:33.160Z,71.92
2022-09-01T21:31:58.349Z,72.00
2022-09-01T21:34:22.046Z,72.87
2022-09-01T21:36:45.827Z,73.16
2022-09-01T21:39:09.501Z,74.04
2022-09-01T21:41:33.239Z,73.70
2022-09-01T21:43:56.955Z,74.06
2022-09-01T21:46:22.121Z,73.96
2022-09-01T21:48:45.790Z,74.39
2022-09-01T21:51:09.622Z,73.88
2022-09-01T21:53:34.070Z,73.17
2022-09-01T21:55:57.916Z,73.39
2022-09-01T21:58:21.611Z,74.15
2022-09-01T22:00:45.747Z,74.00
2022-09-01T22:03:12.106Z,74.67
2022-09-01T22:05:36.713Z,74.19
2022-09-01T22:08:01.559Z,73.75
2022-09-01T22:10:28.336Z,74.52
2022-09-01T22:12:52.542Z,75.39
2022-09-01T22:15:19.444Z,75.44
2022-09-01T22:17:43.208Z,74.78
2022-09-01T22:20:12.031Z,74.92
2022-09-01T22:22:36.505Z,74.76
2022-09-01T22:25:00.233Z,74.95
2022-09-01T22:27:23.957Z,75.16
2022-09-01T22:29:47.654Z,75.49
2022-09-01T22:32:11.352Z,74.82
2022-09-01T22:34:35.567Z,76.23
2022-09-01T22:37:00.603Z,75.44
2022-09-01T22:39:25.669Z,74.93
2022-09-01T22:41:49.627Z,74.95
2022-09-01T22:44:13.523Z,75.11
2022-09-01T22:46:39.658Z,75.30
2022-09-01T22:49:04.124Z,75.59
2022-09-01T22:51:29.029Z,74.86
2022-09-01T22:53:55.157Z,75.62
2022-09-01T22:56:23.350Z,75.59
2022-09-01T22:58:47.186Z,75.13
2022-09-01T23:01:15.099Z,76.48
2022-09-01T23:03:38.960Z,76.21
2022-09-01T23:06:10.056Z,76.10
2022-09-01T23:08:33.839Z,76.24
2022-09-01T23:10:58.876Z,76.17
2022-09-01T23:13:22.752Z,76.00
2022-09-01T23:15:46.552Z,76.08
2022-09-01T23:18:10.416Z,76.01
2022-09-01T23:20:34.192Z,76.10
2022-09-01T23:22:58.031Z,75.83
2022-09-01T23:25:21.874Z,76.83
2022-09-01T23:27:47.119Z,76.46
2022-09-01T23:30:15.466Z,76.46
2022-09-01T23:32:39.511Z,76.10
2022-09-01T23:35:03.655Z,77.64
2022-09-01T23:37:27.415Z,77.54
2022-09-01T23:39:51.728Z,77.31
2022-09-01T23:42:15.503Z,77.47
2022-09-01T23:44:40.971Z,77.84
2022-09-01T23:47:05.523Z,77.10
2022-09-01T23:49:29.183Z,77.52
2022-09-01T23:51:55.475Z,79.64
2022-09-01T23:54:20.197Z,79.46
2022-09-01T23:56:44.027Z,77.76
2022-09-01T23:59:08.632Z,77.17
